createdAt,value
2018-02-11T17:04:12.610Z,65
2018-02-11T17:05:12.622Z,65.03
2018-02-11T17:06:12.915Z,65.38
2018-02-11T17:07:12.929Z,65.7
2018-02-11T17:08:12.944Z,65.51
2018-02-11T17:09:12.677Z,65.03
2018-02-11T17:10:12.969Z,65.41
2018-02-11T17:11:12.700Z,65.6
2018-02-11T17:12:12.712Z,65.7
2018-02-11T17:13:13.005Z,65.28
2018-02-11T17:14:12.737Z,65.89
2018-02-11T17:15:13.036Z,65.99
2018-02-11T17:16:13.046Z,65.7
2018-02-11T17:17:12.775Z,65.7
2018-02-11T17:18:12.789Z,65.7
2018-02-11T17:19:12.800Z,65.8
2018-02-11T17:20:12.814Z,65.8
2018-02-11T17:21:12.825Z,65.51
2018-02-11T17:22:12.838Z,65.7
2018-02-11T17:23:12.851Z,65.7
2018-02-11T17:24:12.863Z,65.51
2018-02-11T17:25:13.158Z,65.95
2018-02-11T17:26:13.171Z,65.6
2018-02-11T17:27:13.187Z,65.99
2018-02-11T17:28:13.195Z,66.08
2018-02-11T17:29:13.216Z,65.8
2018-02-11T17:30:13.222Z,65.89
2018-02-11T17:31:12.952Z,66.24
2018-02-11T17:32:12.964Z,66.17
2018-02-11T17:33:12.977Z,65.99
2018-02-11T17:34:12.990Z,65.7
2018-02-11T17:35:13.285Z,65.99
2018-02-11T17:36:13.041Z,65.95
2018-02-11T17:37:13.027Z,65.7
2018-02-11T17:38:13.041Z,65.67
2018-02-11T17:39:13.333Z,65.8
2018-02-11T17:40:13.066Z,65.99
2018-02-11T17:41:13.365Z,65.86
2018-02-11T17:42:13.091Z,65.86
2018-02-11T17:43:13.393Z,65.38
2018-02-11T17:44:13.401Z,65.38
2018-02-11T17:45:13.128Z,65.47
2018-02-11T17:46:13.423Z,65.67
2018-02-11T17:47:13.480Z,65.47
2018-02-11T17:48:13.458Z,65.28
2018-02-11T17:49:13.511Z,65.76
2018-02-11T17:50:13.476Z,65.67
2018-02-11T17:51:13.491Z,65.67
2018-02-11T17:52:13.500Z,65.95
2018-02-11T17:53:13.230Z,65.76
2018-02-11T17:54:13.573Z,65.95
2018-02-11T17:55:13.651Z,65.95
2018-02-11T17:56:13.267Z,65.86
2018-02-11T17:57:13.559Z,66.05
2018-02-11T17:58:13.294Z,66.61
2018-02-11T17:59:13.305Z,66.24
2018-02-11T18:00:13.598Z,65.95
2018-02-11T18:01:13.611Z,66.24
2018-02-11T18:02:13.623Z,66.42
2018-02-11T18:03:13.635Z,66.14
2018-02-11T18:04:13.652Z,65.95
2018-02-11T18:05:13.379Z,65.67
2018-02-11T18:06:13.676Z,65.67
2018-02-11T18:07:13.406Z,65.47
2018-02-11T18:08:13.698Z,65.57
2018-02-11T18:09:13.429Z,65.57
2018-02-11T18:10:13.442Z,65.76
2018-02-11T18:11:13.458Z,65.47
2018-02-11T18:12:13.492Z,65.57
2018-02-11T18:13:13.760Z,65.47
2018-02-11T18:14:13.775Z,65.28
2018-02-11T18:15:13.504Z,65.47
2018-02-11T18:16:13.516Z,65.57
2018-02-11T18:17:13.814Z,65.47
2018-02-11T18:18:13.823Z,65.57
2018-02-11T18:19:13.554Z,65.57
2018-02-11T18:20:13.566Z,65.67
2018-02-11T18:21:13.579Z,65.86
2018-02-11T18:22:13.591Z,65.67
2018-02-11T18:23:13.887Z,65.76
2018-02-11T18:24:13.617Z,65.86
2018-02-11T18:25:13.909Z,65.86
2018-02-11T18:26:13.642Z,65.57
2018-02-11T18:27:13.652Z,65.47
2018-02-11T18:28:13.665Z,65.67
2018-02-11T18:29:13.966Z,65.76
2018-02-11T18:30:13.971Z,65.47
2018-02-11T18:31:13.982Z,65.86
2018-02-11T18:32:13.994Z,65.86
2018-02-11T18:33:13.727Z,65.95
2018-02-11T18:34:13.741Z,65.67
2018-02-11T18:35:13.752Z,65.47
2018-02-11T18:36:13.765Z,65.57
2018-02-11T18:37:14.059Z,65.86
2018-02-11T18:38:13.792Z,65.47
2018-02-11T18:39:13.804Z,65.86
2018-02-11T18:40:14.103Z,65.86
2018-02-11T18:41:13.827Z,65.86
2018-02-11T18:42:13.840Z,65.86
2018-02-11T18:43:14.159Z,66.14
2018-02-11T18:44:14.146Z,66.05
2018-02-11T18:45:13.880Z,65.86
2018-02-11T18:46:13.892Z,66.05
2018-02-11T18:47:13.904Z,65.86
2018-02-11T18:48:14.194Z,65.86
2018-02-11T18:49:14.206Z,65.47
2018-02-11T18:50:13.939Z,65.76
2018-02-11T18:51:13.951Z,65.38
2018-02-11T18:52:13.963Z,65.28
2018-02-11T18:53:13.975Z,65.38
2018-02-11T18:54:13.987Z,65.67
2018-02-11T18:55:14.281Z,65.67
2018-02-11T18:56:14.294Z,65.57
2018-02-11T18:57:14.309Z,65.47
2018-02-11T18:58:14.037Z,65.57
2018-02-11T18:59:14.053Z,65.57
2018-02-11T19:00:14.342Z,65.38
2018-02-11T19:01:14.361Z,65.38
2018-02-11T19:02:14.087Z,65.86
2018-02-11T19:03:14.098Z,65.67
2018-02-11T19:04:14.111Z,65.57
2018-02-11T19:05:14.123Z,65.57
2018-02-11T19:06:14.136Z,66.05
2018-02-11T19:07:14.429Z,65.86
2018-02-11T19:08:14.441Z,65.67
2018-02-11T19:09:14.454Z,66.24
2018-02-11T19:10:14.494Z,66.61
2018-02-11T19:11:14.480Z,66.24
2018-02-11T19:12:14.489Z,66.33
2018-02-11T19:13:14.504Z,66.05
2018-02-11T19:14:14.234Z,65.86
2018-02-11T19:15:14.527Z,66.24
2018-02-11T19:16:14.540Z,65.67
2018-02-11T19:17:14.551Z,65.57
2018-02-11T19:18:14.563Z,65.57
2018-02-11T19:19:14.295Z,65.47
2018-02-11T19:20:14.308Z,65.86
2018-02-11T19:21:14.601Z,65.95
2018-02-11T19:22:14.613Z,65.57
2018-02-11T19:23:14.626Z,65.57
2018-02-11T19:24:14.356Z,65.86
2018-02-11T19:25:14.648Z,66.33
2018-02-11T19:26:14.380Z,66.24
2018-02-11T19:27:14.676Z,65.86
2018-02-11T19:28:14.686Z,66.05
2018-02-11T19:29:14.705Z,65.86
2018-02-11T19:30:14.708Z,65.76
2018-02-11T19:31:14.721Z,66.33
2018-02-11T19:32:14.735Z,66.61
2018-02-11T19:33:14.746Z,66.61
2018-02-11T19:34:14.760Z,66.33
2018-02-11T19:35:14.771Z,66.49
2018-02-11T19:36:14.783Z,66.2
2018-02-11T19:37:14.516Z,66.05
2018-02-11T19:38:14.809Z,66.67
2018-02-11T19:39:14.825Z,66.01
2018-02-11T19:40:14.841Z,66.58
2018-02-11T19:41:14.561Z,66.24
2018-02-11T19:42:14.855Z,66.67
2018-02-11T19:43:14.868Z,66.71
2018-02-11T19:44:14.889Z,66.33
2018-02-11T19:45:14.763Z,66.71
2018-02-11T19:46:14.908Z,66.71
2018-02-11T19:47:14.915Z,66.24
2018-02-11T19:48:14.930Z,66.33
2018-02-11T19:49:14.676Z,66.2
2018-02-11T19:50:14.741Z,66.58
2018-02-11T19:51:14.684Z,66.67
2018-02-11T19:52:14.976Z,66.61
2018-02-11T19:53:15.002Z,66.33
2018-02-11T19:54:14.719Z,66.2
2018-02-11T19:55:15.064Z,66.3
2018-02-11T19:56:14.762Z,66.42
2018-02-11T19:57:14.757Z,66.14
2018-02-11T19:58:15.051Z,66.24
2018-02-11T19:59:14.780Z,66.8
2018-02-11T20:00:14.944Z,66.8
2018-02-11T20:01:15.089Z,66.61
2018-02-11T20:02:15.105Z,67.09
2018-02-11T20:03:15.110Z,66.42
2018-02-11T20:04:15.128Z,66.24
2018-02-11T20:05:15.184Z,66.24
2018-02-11T20:06:15.145Z,66.61
2018-02-11T20:07:14.877Z,66.39
2018-02-11T20:08:14.890Z,66.24
2018-02-11T20:09:15.186Z,66.58
2018-02-11T20:10:15.194Z,66.39
2018-02-11T20:11:15.216Z,66.33
2018-02-11T20:12:15.219Z,66.8
2018-02-11T20:13:15.231Z,66.42
2018-02-11T20:14:14.964Z,66.61
2018-02-11T20:15:15.313Z,66.8
2018-02-11T20:16:15.270Z,66.71
2018-02-11T20:17:15.284Z,66.42
2018-02-11T20:18:15.012Z,66.11
2018-02-11T20:19:15.025Z,66.33
2018-02-11T20:20:15.086Z,66.14
2018-02-11T20:21:15.332Z,66.11
2018-02-11T20:22:15.345Z,66.3
2018-02-11T20:23:15.463Z,66.24
2018-02-11T20:24:15.368Z,66.58
2018-02-11T20:25:15.146Z,66.67
2018-02-11T20:26:15.108Z,66.67
2018-02-11T20:27:15.119Z,66.67
2018-02-11T20:28:15.413Z,66.67
2018-02-11T20:29:15.145Z,66.87
2018-02-11T20:30:15.208Z,67
2018-02-11T20:31:15.170Z,67.15
2018-02-11T20:32:15.185Z,66.96
2018-02-11T20:33:15.477Z,66.58
2018-02-11T20:34:15.204Z,66.77
2018-02-11T20:35:15.281Z,66.61
2018-02-11T20:36:15.511Z,66.71
2018-02-11T20:37:15.241Z,67.06
2018-02-11T20:38:15.542Z,66.61
2018-02-11T20:39:15.267Z,66.96
2018-02-11T20:40:15.327Z,66.71
2018-02-11T20:41:15.579Z,66.67
2018-02-11T20:42:15.300Z,66.96
2018-02-11T20:43:15.329Z,66.8
2018-02-11T20:44:15.608Z,67.28
2018-02-11T20:45:15.617Z,67
2018-02-11T20:46:15.632Z,67.44
2018-02-11T20:47:15.362Z,67.66
2018-02-11T20:48:15.656Z,67.44
2018-02-11T20:49:15.692Z,67.44
2018-02-11T20:50:15.398Z,67.19
2018-02-11T20:51:15.409Z,66.96
2018-02-11T20:52:15.422Z,67.53
2018-02-11T20:53:15.434Z,67.53
2018-02-11T20:54:15.455Z,67.66
2018-02-11T20:55:15.469Z,67.91
2018-02-11T20:56:15.472Z,67.38
2018-02-11T20:57:15.482Z,67.44
2018-02-11T20:58:15.496Z,67.57
2018-02-11T20:59:15.788Z,67.44
2018-02-11T21:00:15.805Z,67.25
2018-02-11T21:01:15.811Z,67.28
2018-02-11T21:02:15.543Z,67.53
2018-02-11T21:03:15.555Z,67.57
2018-02-11T21:04:15.567Z,67.53
2018-02-11T21:05:15.860Z,67.53
2018-02-11T21:06:15.594Z,67.38
2018-02-11T21:07:15.885Z,67.28
2018-02-11T21:08:15.918Z,67.15
2018-02-11T21:09:15.626Z,67.28
2018-02-11T21:10:15.928Z,68.19
2018-02-11T21:11:15.941Z,67.28
2018-02-11T21:12:15.663Z,67.38
2018-02-11T21:13:15.674Z,67.66
2018-02-11T21:14:15.980Z,67.66
2018-02-11T21:15:15.980Z,67.57
2018-02-11T21:16:15.991Z,67.66
2018-02-11T21:17:15.723Z,67.94
2018-02-11T21:18:15.736Z,68.13
2018-02-11T21:19:16.030Z,68.13
2018-02-11T21:20:15.760Z,68.13
2018-02-11T21:21:16.052Z,67.66
2018-02-11T21:22:16.064Z,68.04
2018-02-11T21:23:15.798Z,67.94
2018-02-11T21:24:15.808Z,68.13
2018-02-11T21:25:16.110Z,67.85
2018-02-11T21:26:15.832Z,67.85
2018-02-11T21:27:15.844Z,67.94
2018-02-11T21:28:16.169Z,68.13
2018-02-11T21:29:16.154Z,67.66
2018-02-11T21:30:16.162Z,67.66
2018-02-11T21:31:15.892Z,67.76
2018-02-11T21:32:15.910Z,67.47
2018-02-11T21:33:16.196Z,67.66
2018-02-11T21:34:15.929Z,67.66
2018-02-11T21:35:16.223Z,68.04
2018-02-11T21:36:16.257Z,67.94
2018-02-11T21:37:16.249Z,67.57
2018-02-11T21:38:15.977Z,67.76
2018-02-11T21:39:15.988Z,67.76
2018-02-11T21:40:16.001Z,67.94
2018-02-11T21:41:16.013Z,67.57
2018-02-11T21:42:16.325Z,68.13
2018-02-11T21:43:16.319Z,67.94
2018-02-11T21:44:16.051Z,67.85
2018-02-11T21:45:16.062Z,67.94
2018-02-11T21:46:16.358Z,67.94
2018-02-11T21:47:16.373Z,67.85
2018-02-11T21:48:16.380Z,68.42
2018-02-11T21:49:16.112Z,68.04
2018-02-11T21:50:16.421Z,68.13
2018-02-11T21:51:16.418Z,67.85
2018-02-11T21:52:16.147Z,67.76
2018-02-11T21:53:16.443Z,67.94
2018-02-11T21:54:16.454Z,67.66
2018-02-11T21:55:16.464Z,67.82
2018-02-11T21:56:16.195Z,67.76
2018-02-11T21:57:16.492Z,67.76
2018-02-11T21:58:16.367Z,68.04
2018-02-11T21:59:16.513Z,68.04
2018-02-11T22:00:16.531Z,67.94
2018-02-11T22:01:16.586Z,68.42
2018-02-11T22:02:16.552Z,68.48
2018-02-11T22:03:16.282Z,68.39
2018-02-11T22:04:16.307Z,68.86
2018-02-11T22:05:16.307Z,68.77
2018-02-11T22:06:16.316Z,68.61
2018-02-11T22:07:16.328Z,68.39
2018-02-11T22:08:16.620Z,68.42
2018-02-11T22:09:16.631Z,68.58
2018-02-11T22:10:16.363Z,68.19
2018-02-11T22:11:16.707Z,68.23
2018-02-11T22:12:16.392Z,68.42
2018-02-11T22:13:16.681Z,68.42
2018-02-11T22:14:16.696Z,68.52
2018-02-11T22:15:16.704Z,68.42
2018-02-11T22:16:16.588Z,68.39
2018-02-11T22:17:16.730Z,68.48
2018-02-11T22:18:16.740Z,68.04
2018-02-11T22:19:16.473Z,69.05
2018-02-11T22:20:16.765Z,68.04
2018-02-11T22:21:16.549Z,68.19
2018-02-11T22:22:16.791Z,68.29
2018-02-11T22:23:16.520Z,68.48
2018-02-11T22:24:16.811Z,68.86
2018-02-11T22:25:16.826Z,68.39
2018-02-11T22:26:16.887Z,68.52
2018-02-11T22:27:16.851Z,68.33
2018-02-11T22:28:16.863Z,68.19
2018-02-11T22:29:16.881Z,68.58
2018-02-11T22:30:16.605Z,68.01
2018-02-11T22:31:16.667Z,68.19
2018-02-11T22:32:16.910Z,68.29
2018-02-11T22:33:16.644Z,68.39
2018-02-11T22:34:16.939Z,68.48
2018-02-11T22:35:16.945Z,68.1
2018-02-11T22:36:16.729Z,68.04
2018-02-11T22:37:16.696Z,68.52
2018-02-11T22:38:16.982Z,68.23
2018-02-11T22:39:16.714Z,68.04
2018-02-11T22:40:16.727Z,68.33
2018-02-11T22:41:17.068Z,68.8
2018-02-11T22:42:16.750Z,68.39
2018-02-11T22:43:17.045Z,68.71
2018-02-11T22:44:17.054Z,68.67
2018-02-11T22:45:16.785Z,68.77
2018-02-11T22:46:16.849Z,68.67
2018-02-11T22:47:17.089Z,68.1
2018-02-11T22:48:17.104Z,68.19
2018-02-11T22:49:17.115Z,68.77
2018-02-11T22:50:17.127Z,68.67
2018-02-11T22:51:16.860Z,68.42
2018-02-11T22:52:16.874Z,68.67
2018-02-11T22:53:17.164Z,68.77
2018-02-11T22:54:17.174Z,68.67
2018-02-11T22:55:16.909Z,68.77
2018-02-11T22:56:17.252Z,68.29
2018-02-11T22:57:17.212Z,68.77
2018-02-11T22:58:17.229Z,68.39
2018-02-11T22:59:17.239Z,69.15
2018-02-11T23:00:16.972Z,69.15
2018-02-11T23:01:17.028Z,68.96
2018-02-11T23:02:16.990Z,69.05
2018-02-11T23:03:17.286Z,69.15
2018-02-11T23:04:17.013Z,68.96
2018-02-11T23:05:17.025Z,69.15
2018-02-11T23:06:17.369Z,69.15
2018-02-11T23:07:17.370Z,69.05
2018-02-11T23:08:17.063Z,68.77
2018-02-11T23:09:17.355Z,68.96
2018-02-11T23:10:17.086Z,68.86
2018-02-11T23:11:17.099Z,69.05
2018-02-11T23:12:17.389Z,69.05
2018-02-11T23:13:17.401Z,68.77
2018-02-11T23:14:17.136Z,69.05
2018-02-11T23:15:17.144Z,68.96
2018-02-11T23:16:17.488Z,68.86
2018-02-11T23:17:17.456Z,68.77
2018-02-11T23:18:17.464Z,68.96
2018-02-11T23:19:17.475Z,68.77
2018-02-11T23:20:17.487Z,68.96
2018-02-11T23:21:17.267Z,68.96
2018-02-11T23:22:17.511Z,68.86
2018-02-11T23:23:17.241Z,68.86
2018-02-11T23:24:17.538Z,69.15
2018-02-11T23:25:17.267Z,69.05
2018-02-11T23:26:17.327Z,69.15
2018-02-11T23:27:17.290Z,69.05
2018-02-11T23:28:17.585Z,68.48
2018-02-11T23:29:17.321Z,68.58
2018-02-11T23:30:17.325Z,68.29
2018-02-11T23:31:17.618Z,68.29
2018-02-11T23:32:17.633Z,68.29
2018-02-11T23:33:17.361Z,68.19
2018-02-11T23:34:17.653Z,68.77
2018-02-11T23:35:17.386Z,68.67
2018-02-11T23:36:17.448Z,68.19
2018-02-11T23:37:17.409Z,68.39
2018-02-11T23:38:17.702Z,68.96
2018-02-11T23:39:17.715Z,69.24
2018-02-11T23:40:17.728Z,69.05
2018-02-11T23:41:17.736Z,69.05
2018-02-11T23:42:17.468Z,68.96
2018-02-11T23:43:17.761Z,69.05
2018-02-11T23:44:17.776Z,69.15
2018-02-11T23:45:17.507Z,69.15
2018-02-11T23:46:17.516Z,69.05
2018-02-11T23:47:17.809Z,69.15
2018-02-11T23:48:17.820Z,68.86
2018-02-11T23:49:17.552Z,69.05
2018-02-11T23:50:17.565Z,69.05
2018-02-11T23:51:17.857Z,69.05
2018-02-11T23:52:17.869Z,69.05
2018-02-11T23:53:17.600Z,68.39
2018-02-11T23:54:17.894Z,68.39
2018-02-11T23:55:17.630Z,68.58
2018-02-11T23:56:17.915Z,68.67
2018-02-11T23:57:17.646Z,68.39
2018-02-11T23:58:17.940Z,68.86
2018-02-11T23:59:17.670Z,69.15
